sensor_id;sensor_type;location;lat;lon;timestamp;P1;durP1;ratioP1;P2;durP2;ratioP2
9176;SDS011;4623;54.310;10.112;2023-02-12T00:01:37;3.47;;;3.17;;
9176;SDS011;4623;54.310;10.112;2023-02-12T00:04:03;3.43;;;3.13;;
9176;SDS011;4623;54.310;10.112;2023-02-12T00:06:29;3.07;;;2.87;;
9176;SDS011;4623;54.310;10.112;2023-02-12T00:08:55;4.10;;;3.60;;
9176;SDS011;4623;54.310;10.112;2023-02-12T00:11:22;4.70;;;4.30;;
9176;SDS011;4623;54.310;10.112;2023-02-12T00:13:50;4.70;;;4.20;;
9176;SDS011;4623;54.310;10.112;2023-02-12T00:16:17;5.57;;;5.07;;
9176;SDS011;4623;54.310;10.112;2023-02-12T00:18:45;4.57;;;4.17;;
9176;SDS011;4623;54.310;10.112;2023-02-12T00:21:11;3.57;;;3.37;;
9176;SDS011;4623;54.310;10.112;2023-02-12T00:23:38;3.60;;;3.30;;
9176;SDS011;4623;54.310;10.112;2023-02-12T00:26:09;3.23;;;2.93;;
9176;SDS011;4623;54.310;10.112;2023-02-12T00:28:36;3.63;;;3.33;;
9176;SDS011;4623;54.310;10.112;2023-02-12T00:31:08;3.77;;;3.47;;
9176;SDS011;4623;54.310;10.112;2023-02-12T00:33:36;3.80;;;3.40;;
9176;SDS011;4623;54.310;10.112;2023-02-12T00:36:02;3.80;;;3.50;;
9176;SDS011;4623;54.310;10.112;2023-02-12T00:38:28;3.83;;;3.50;;
9176;SDS011;4623;54.310;10.112;2023-02-12T00:40:54;3.00;;;2.80;;
9176;SDS011;4623;54.310;10.112;2023-02-12T00:43:20;3.33;;;3.13;;
9176;SDS011;4623;54.310;10.112;2023-02-12T00:45:45;3.60;;;3.30;;
9176;SDS011;4623;54.310;10.112;2023-02-12T00:48:12;3.43;;;3.13;;
9176;SDS011;4623;54.310;10.112;2023-02-12T00:50:38;3.87;;;3.57;;
9176;SDS011;4623;54.310;10.112;2023-02-12T00:53:05;3.87;;;3.57;;
9176;SDS011;4623;54.310;10.112;2023-02-12T00:55:32;3.90;;;3.60;;
9176;SDS011;4623;54.310;10.112;2023-02-12T00:58:01;6.83;;;4.40;;
9176;SDS011;4623;54.310;10.112;2023-02-12T01:00:26;4.23;;;3.83;;
9176;SDS011;4623;54.310;10.112;2023-02-12T01:02:52;4.90;;;4.50;;
9176;SDS011;4623;54.310;10.112;2023-02-12T01:05:17;4.60;;;4.20;;
9176;SDS011;4623;54.310;10.112;2023-02-12T01:07:43;3.70;;;3.40;;
9176;SDS011;4623;54.310;10.112;2023-02-12T01:10:13;4.23;;;3.80;;
9176;SDS011;4623;54.310;10.112;2023-02-12T01:12:38;3.53;;;3.23;;
9176;SDS011;4623;54.310;10.112;2023-02-12T01:15:04;3.73;;;3.43;;
9176;SDS011;4623;54.310;10.112;2023-02-12T01:17:30;3.97;;;3.23;;
9176;SDS011;4623;54.310;10.112;2023-02-12T01:19:56;6.13;;;3.47;;
9176;SDS011;4623;54.310;10.112;2023-02-12T01:22:22;4.83;;;3.30;;
9176;SDS011;4623;54.310;10.112;2023-02-12T01:24:48;3.20;;;2.90;;
9176;SDS011;4623;54.310;10.112;2023-02-12T01:27:14;3.17;;;2.97;;
9176;SDS011;4623;54.310;10.112;2023-02-12T01:29:40;3.00;;;2.80;;
9176;SDS011;4623;54.310;10.112;2023-02-12T01:32:08;4.70;;;3.17;;
9176;SDS011;4623;54.310;10.112;2023-02-12T01:34:34;4.03;;;3.17;;
9176;SDS011;4623;54.310;10.112;2023-02-12T01:37:00;3.83;;;3.23;;
9176;SDS011;4623;54.310;10.112;2023-02-12T01:39:25;3.13;;;2.83;;
9176;SDS011;4623;54.310;10.112;2023-02-12T01:41:51;3.77;;;3.10;;
9176;SDS011;4623;54.310;10.112;2023-02-12T01:44:18;3.90;;;3.60;;
9176;SDS011;4623;54.310;10.112;2023-02-12T01:46:45;5.57;;;3.20;;
9176;SDS011;4623;54.310;10.112;2023-02-12T01:49:17;4.30;;;2.70;;
9176;SDS011;4623;54.310;10.112;2023-02-12T01:51:46;4.03;;;3.00;;
9176;SDS011;4623;54.310;10.112;2023-02-12T01:54:15;4.40;;;3.37;;
9176;SDS011;4623;54.310;10.112;2023-02-12T01:56:43;3.23;;;2.73;;
9176;SDS011;4623;54.310;10.112;2023-02-12T01:59:09;3.87;;;2.87;;
9176;SDS011;4623;54.310;10.112;2023-02-12T02:01:35;3.53;;;3.23;;
9176;SDS011;4623;54.310;10.112;2023-02-12T02:04:04;3.33;;;3.03;;
9176;SDS011;4623;54.310;10.112;2023-02-12T02:07:01;7.33;;;3.00;;
9176;SDS011;4623;54.310;10.112;2023-02-12T02:09:27;3.50;;;3.10;;
9176;SDS011;4623;54.310;10.112;2023-02-12T02:11:55;4.50;;;3.00;;
9176;SDS011;4623;54.310;10.112;2023-02-12T02:14:40;3.70;;;3.40;;
9176;SDS011;4623;54.310;10.112;2023-02-12T02:22:49;6.80;;;3.23;;
9176;SDS011;4623;54.310;10.112;2023-02-12T02:25:33;4.67;;;3.63;;
9176;SDS011;4623;54.310;10.112;2023-02-12T02:28:31;5.37;;;3.70;;
9176;SDS011;4623;54.310;10.112;2023-02-12T02:31:19;8.67;;;4.03;;
9176;SDS011;4623;54.310;10.112;2023-02-12T02:33:53;4.73;;;3.27;;
9176;SDS011;4623;54.310;10.112;2023-02-12T02:36:34;7.77;;;4.30;;
9176;SDS011;4623;54.310;10.112;2023-02-12T02:39:11;8.30;;;4.13;;
9176;SDS011;4623;54.310;10.112;2023-02-12T02:41:43;4.83;;;3.10;;
9176;SDS011;4623;54.310;10.112;2023-02-12T02:44:17;5.70;;;3.63;;
9176;SDS011;4623;54.310;10.112;2023-02-12T02:46:49;6.77;;;3.40;;
9176;SDS011;4623;54.310;10.112;2023-02-12T02:49:27;4.97;;;3.30;;
9176;SDS011;4623;54.310;10.112;2023-02-12T02:51:59;8.53;;;3.87;;
9176;SDS011;4623;54.310;10.112;2023-02-12T02:54:36;7.50;;;3.93;;
9176;SDS011;4623;54.310;10.112;2023-02-12T02:57:26;7.87;;;3.20;;
9176;SDS011;4623;54.310;10.112;2023-02-12T02:59:58;7.67;;;4.03;;
9176;SDS011;4623;54.310;10.112;2023-02-12T03:02:31;5.03;;;3.37;;
9176;SDS011;4623;54.310;10.112;2023-02-12T03:05:05;6.93;;;3.70;;
9176;SDS011;4623;54.310;10.112;2023-02-12T03:07:37;6.90;;;3.27;;
9176;SDS011;4623;54.310;10.112;2023-02-12T03:10:13;8.40;;;3.63;;
9176;SDS011;4623;54.310;10.112;2023-02-12T03:12:50;6.57;;;3.50;;
9176;SDS011;4623;54.310;10.112;2023-02-12T03:15:32;9.50;;;4.33;;
9176;SDS011;4623;54.310;10.112;2023-02-12T03:18:02;8.80;;;3.47;;
9176;SDS011;4623;54.310;10.112;2023-02-12T03:20:44;7.17;;;3.70;;
9176;SDS011;4623;54.310;10.112;2023-02-12T03:26:10;10.20;;;3.97;;
9176;SDS011;4623;54.310;10.112;2023-02-12T03:28:39;7.97;;;3.67;;
9176;SDS011;4623;54.310;10.112;2023-02-12T03:34:10;5.07;;;3.13;;
9176;SDS011;4623;54.310;10.112;2023-02-12T03:36:55;14.37;;;5.07;;
9176;SDS011;4623;54.310;10.112;2023-02-12T03:42:19;11.83;;;4.30;;
9176;SDS011;4623;54.310;10.112;2023-02-12T03:45:01;10.80;;;5.07;;
9176;SDS011;4623;54.310;10.112;2023-02-12T03:47:44;12.10;;;4.60;;
9176;SDS011;4623;54.310;10.112;2023-02-12T03:51:01;12.07;;;4.47;;
9176;SDS011;4623;54.310;10.112;2023-02-12T03:53:15;11.27;;;4.90;;
9176;SDS011;4623;54.310;10.112;2023-02-12T03:55:41;13.07;;;4.83;;
9176;SDS011;4623;54.310;10.112;2023-02-12T03:58:09;11.13;;;4.60;;
9176;SDS011;4623;54.310;10.112;2023-02-12T04:00:40;11.27;;;4.43;;
9176;SDS011;4623;54.310;10.112;2023-02-12T04:03:06;18.20;;;5.23;;
9176;SDS011;4623;54.310;10.112;2023-02-12T04:05:32;18.47;;;5.67;;
9176;SDS011;4623;54.310;10.112;2023-02-12T04:07:58;11.20;;;4.67;;
9176;SDS011;4623;54.310;10.112;2023-02-12T04:10:28;10.63;;;4.87;;
9176;SDS011;4623;54.310;10.112;2023-02-12T04:16:01;13.10;;;6.03;;
9176;SDS011;4623;54.310;10.112;2023-02-12T04:18:41;12.47;;;4.90;;
9176;SDS011;4623;54.310;10.112;2023-02-12T04:21:15;11.57;;;5.77;;
9176;SDS011;4623;54.310;10.112;2023-02-12T04:32:01;13.47;;;5.27;;
9176;SDS011;4623;54.310;10.112;2023-02-12T04:35:07;10.87;;;4.80;;
9176;SDS011;4623;54.310;10.112;2023-02-12T04:37:41;10.50;;;4.80;;
9176;SDS011;4623;54.310;10.112;2023-02-12T04:40:13;7.23;;;4.37;;
9176;SDS011;4623;54.310;10.112;2023-02-12T04:45:09;10.80;;;4.57;;
9176;SDS011;4623;54.310;10.112;2023-02-12T04:47:36;6.90;;;3.77;;
9176;SDS011;4623;54.310;10.112;2023-02-12T04:50:02;6.20;;;3.67;;
9176;SDS011;4623;54.310;10.112;2023-02-12T04:52:27;8.63;;;3.57;;
9176;SDS011;4623;54.310;10.112;2023-02-12T04:54:53;7.23;;;3.87;;
9176;SDS011;4623;54.310;10.112;2023-02-12T04:57:18;8.77;;;3.70;;
9176;SDS011;4623;54.310;10.112;2023-02-12T04:59:44;8.00;;;4.70;;
9176;SDS011;4623;54.310;10.112;2023-02-12T05:02:09;12.10;;;5.10;;
9176;SDS011;4623;54.310;10.112;2023-02-12T05:04:35;12.70;;;4.57;;
9176;SDS011;4623;54.310;10.112;2023-02-12T05:07:00;11.00;;;4.80;;
9176;SDS011;4623;54.310;10.112;2023-02-12T05:09:26;11.07;;;4.50;;
9176;SDS011;4623;54.310;10.112;2023-02-12T05:11:51;11.17;;;4.60;;
9176;SDS011;4623;54.310;10.112;2023-02-12T05:14:17;7.07;;;4.20;;
9176;SDS011;4623;54.310;10.112;2023-02-12T05:16:42;6.13;;;4.20;;
9176;SDS011;4623;54.310;10.112;2023-02-12T05:19:08;5.50;;;3.10;;
9176;SDS011;4623;54.310;10.112;2023-02-12T05:21:34;6.50;;;3.90;;
9176;SDS011;4623;54.310;10.112;2023-02-12T05:24:01;6.93;;;3.97;;
9176;SDS011;4623;54.310;10.112;2023-02-12T05:26:27;10.80;;;4.70;;
9176;SDS011;4623;54.310;10.112;2023-02-12T05:28:53;7.60;;;4.20;;
9176;SDS011;4623;54.310;10.112;2023-02-12T05:31:21;6.23;;;3.77;;
9176;SDS011;4623;54.310;10.112;2023-02-12T05:33:47;9.27;;;5.00;;
9176;SDS011;4623;54.310;10.112;2023-02-12T05:36:14;7.43;;;4.80;;
9176;SDS011;4623;54.310;10.112;2023-02-12T05:38:42;7.67;;;4.10;;
9176;SDS011;4623;54.310;10.112;2023-02-12T05:41:09;9.83;;;4.30;;
9176;SDS011;4623;54.310;10.112;2023-02-12T05:43:37;7.37;;;4.97;;
9176;SDS011;4623;54.310;10.112;2023-02-12T05:46:03;10.67;;;5.20;;
9176;SDS011;4623;54.310;10.112;2023-02-12T05:48:30;15.73;;;5.60;;
9176;SDS011;4623;54.310;10.112;2023-02-12T05:51:04;10.07;;;5.10;;
9176;SDS011;4623;54.310;10.112;2023-02-12T05:53:35;8.47;;;5.50;;
9176;SDS011;4623;54.310;10.112;2023-02-12T05:58:38;12.50;;;6.40;;
9176;SDS011;4623;54.310;10.112;2023-02-12T06:01:09;12.87;;;6.40;;
9176;SDS011;4623;54.310;10.112;2023-02-12T06:03:36;13.20;;;6.40;;
9176;SDS011;4623;54.310;10.112;2023-02-12T06:06:02;15.20;;;6.70;;
9176;SDS011;4623;54.310;10.112;2023-02-12T06:08:28;10.30;;;6.00;;
9176;SDS011;4623;54.310;10.112;2023-02-12T06:10:54;19.47;;;7.67;;
9176;SDS011;4623;54.310;10.112;2023-02-12T06:13:24;16.60;;;6.30;;
9176;SDS011;4623;54.310;10.112;2023-02-12T06:15:49;19.50;;;7.63;;
9176;SDS011;4623;54.310;10.112;2023-02-12T06:18:15;16.07;;;5.90;;
9176;SDS011;4623;54.310;10.112;2023-02-12T06:20:40;17.30;;;7.73;;
9176;SDS011;4623;54.310;10.112;2023-02-12T06:23:05;20.43;;;6.50;;
9176;SDS011;4623;54.310;10.112;2023-02-12T06:25:31;18.93;;;7.03;;
9176;SDS011;4623;54.310;10.112;2023-02-12T06:27:56;21.97;;;7.90;;
9176;SDS011;4623;54.310;10.112;2023-02-12T06:30:22;24.03;;;7.40;;
9176;SDS011;4623;54.310;10.112;2023-02-12T06:32:48;20.00;;;7.77;;
9176;SDS011;4623;54.310;10.112;2023-02-12T06:35:14;26.13;;;7.67;;
9176;SDS011;4623;54.310;10.112;2023-02-12T06:37:39;23.67;;;8.90;;
9176;SDS011;4623;54.310;10.112;2023-02-12T06:40:05;24.77;;;8.00;;
9176;SDS011;4623;54.310;10.112;2023-02-12T06:42:31;27.33;;;8.47;;
9176;SDS011;4623;54.310;10.112;2023-02-12T06:44:57;27.37;;;8.33;;
9176;SDS011;4623;54.310;10.112;2023-02-12T06:47:22;22.93;;;8.07;;
9176;SDS011;4623;54.310;10.112;2023-02-12T06:49:48;25.73;;;8.00;;
9176;SDS011;4623;54.310;10.112;2023-02-12T06:52:13;25.17;;;8.37;;
9176;SDS011;4623;54.310;10.112;2023-02-12T06:54:39;27.53;;;8.80;;
9176;SDS011;4623;54.310;10.112;2023-02-12T06:57:04;23.57;;;7.77;;
9176;SDS011;4623;54.310;10.112;2023-02-12T06:59:30;22.27;;;7.60;;
9176;SDS011;4623;54.310;10.112;2023-02-12T07:01:55;24.17;;;8.23;;
9176;SDS011;4623;54.310;10.112;2023-02-12T07:04:21;29.83;;;8.67;;
9176;SDS011;4623;54.310;10.112;2023-02-12T07:06:46;27.00;;;8.90;;
9176;SDS011;4623;54.310;10.112;2023-02-12T07:09:12;21.27;;;7.93;;
9176;SDS011;4623;54.310;10.112;2023-02-12T07:11:37;30.37;;;9.87;;
9176;SDS011;4623;54.310;10.112;2023-02-12T07:14:03;18.97;;;7.90;;
9176;SDS011;4623;54.310;10.112;2023-02-12T07:16:29;19.27;;;7.63;;
9176;SDS011;4623;54.310;10.112;2023-02-12T07:18:55;19.03;;;7.93;;
9176;SDS011;4623;54.310;10.112;2023-02-12T07:21:21;27.83;;;9.33;;
9176;SDS011;4623;54.310;10.112;2023-02-12T07:23:47;18.43;;;8.47;;
9176;SDS011;4623;54.310;10.112;2023-02-12T07:26:14;19.87;;;9.13;;
9176;SDS011;4623;54.310;10.112;2023-02-12T07:28:40;17.37;;;8.87;;
9176;SDS011;4623;54.310;10.112;2023-02-12T07:33:33;21.97;;;10.37;;
9176;SDS011;4623;54.310;10.112;2023-02-12T07:36:00;22.00;;;10.20;;
9176;SDS011;4623;54.310;10.112;2023-02-12T07:38:25;21.67;;;9.40;;
9176;SDS011;4623;54.310;10.112;2023-02-12T07:40:52;21.40;;;10.20;;
9176;SDS011;4623;54.310;10.112;2023-02-12T07:43:17;21.90;;;9.47;;
9176;SDS011;4623;54.310;10.112;2023-02-12T07:45:43;27.30;;;10.17;;
9176;SDS011;4623;54.310;10.112;2023-02-12T07:48:08;22.80;;;9.73;;
9176;SDS011;4623;54.310;10.112;2023-02-12T07:50:34;20.10;;;8.63;;
9176;SDS011;4623;54.310;10.112;2023-02-12T07:52:59;20.83;;;8.93;;
9176;SDS011;4623;54.310;10.112;2023-02-12T07:55:25;17.60;;;8.67;;
9176;SDS011;4623;54.310;10.112;2023-02-12T07:57:50;22.43;;;9.63;;
9176;SDS011;4623;54.310;10.112;2023-02-12T08:00:16;20.37;;;8.80;;
9176;SDS011;4623;54.310;10.112;2023-02-12T08:02:42;16.47;;;8.53;;
9176;SDS011;4623;54.310;10.112;2023-02-12T08:05:07;19.60;;;8.83;;
9176;SDS011;4623;54.310;10.112;2023-02-12T08:07:33;20.40;;;9.03;;
9176;SDS011;4623;54.310;10.112;2023-02-12T08:09:58;24.10;;;8.93;;
9176;SDS011;4623;54.310;10.112;2023-02-12T08:12:24;14.87;;;8.40;;
9176;SDS011;4623;54.310;10.112;2023-02-12T08:14:50;21.93;;;10.00;;
9176;SDS011;4623;54.310;10.112;2023-02-12T08:17:15;20.97;;;9.77;;
9176;SDS011;4623;54.310;10.112;2023-02-12T08:19:41;17.87;;;8.33;;
9176;SDS011;4623;54.310;10.112;2023-02-12T08:22:06;17.07;;;8.40;;
9176;SDS011;4623;54.310;10.112;2023-02-12T08:24:32;17.83;;;8.30;;
9176;SDS011;4623;54.310;10.112;2023-02-12T08:26:57;13.73;;;8.00;;
9176;SDS011;4623;54.310;10.112;2023-02-12T08:29:27;18.53;;;8.17;;
9176;SDS011;4623;54.310;10.112;2023-02-12T08:31:55;17.63;;;9.33;;
9176;SDS011;4623;54.310;10.112;2023-02-12T08:34:23;18.77;;;8.23;;
9176;SDS011;4623;54.310;10.112;2023-02-12T08:36:56;17.43;;;8.90;;
9176;SDS011;4623;54.310;10.112;2023-02-12T08:39:23;17.33;;;7.87;;
9176;SDS011;4623;54.310;10.112;2023-02-12T08:41:50;17.67;;;8.57;;
9176;SDS011;4623;54.310;10.112;2023-02-12T08:44:18;16.57;;;7.97;;
9176;SDS011;4623;54.310;10.112;2023-02-12T08:46:45;18.73;;;9.10;;
9176;SDS011;4623;54.310;10.112;2023-02-12T08:49:14;19.40;;;9.73;;
9176;SDS011;4623;54.310;10.112;2023-02-12T08:51:45;16.03;;;8.80;;
9176;SDS011;4623;54.310;10.112;2023-02-12T08:54:14;18.97;;;9.27;;
9176;SDS011;4623;54.310;10.112;2023-02-12T08:56:41;19.50;;;9.40;;
9176;SDS011;4623;54.310;10.112;2023-02-12T08:59:09;15.10;;;8.23;;
9176;SDS011;4623;54.310;10.112;2023-02-12T09:01:36;18.10;;;9.30;;
9176;SDS011;4623;54.310;10.112;2023-02-12T09:04:02;18.33;;;8.80;;
9176;SDS011;4623;54.310;10.112;2023-02-12T09:06:30;15.67;;;8.47;;
9176;SDS011;4623;54.310;10.112;2023-02-12T09:08:56;18.83;;;9.50;;
9176;SDS011;4623;54.310;10.112;2023-02-12T09:11:25;16.60;;;9.13;;
9176;SDS011;4623;54.310;10.112;2023-02-12T09:13:56;19.60;;;10.33;;
9176;SDS011;4623;54.310;10.112;2023-02-12T09:16:23;17.83;;;9.57;;
9176;SDS011;4623;54.310;10.112;2023-02-12T09:18:49;19.20;;;9.63;;
9176;SDS011;4623;54.310;10.112;2023-02-12T09:21:15;16.53;;;9.53;;
9176;SDS011;4623;54.310;10.112;2023-02-12T09:23:41;20.43;;;9.60;;
9176;SDS011;4623;54.310;10.112;2023-02-12T09:26:09;20.23;;;9.50;;
9176;SDS011;4623;54.310;10.112;2023-02-12T09:28:39;16.37;;;8.63;;
9176;SDS011;4623;54.310;10.112;2023-02-12T09:31:06;17.13;;;9.17;;
9176;SDS011;4623;54.310;10.112;2023-02-12T09:33:36;15.37;;;8.03;;
9176;SDS011;4623;54.310;10.112;2023-02-12T09:36:06;16.13;;;7.50;;
9176;SDS011;4623;54.310;10.112;2023-02-12T09:38:33;15.80;;;8.13;;
9176;SDS011;4623;54.310;10.112;2023-02-12T09:46:54;14.83;;;6.80;;
9176;SDS011;4623;54.310;10.112;2023-02-12T09:49:37;15.00;;;8.40;;
9176;SDS011;4623;54.310;10.112;2023-02-12T09:52:20;18.10;;;7.50;;
9176;SDS011;4623;54.310;10.112;2023-02-12T09:54:52;14.77;;;7.67;;
9176;SDS011;4623;54.310;10.112;2023-02-12T09:57:36;16.20;;;7.90;;
9176;SDS011;4623;54.310;10.112;2023-02-12T10:00:09;16.57;;;7.27;;
9176;SDS011;4623;54.310;10.112;2023-02-12T10:02:46;13.17;;;8.00;;
9176;SDS011;4623;54.310;10.112;2023-02-12T10:05:18;12.10;;;6.87;;
9176;SDS011;4623;54.310;10.112;2023-02-12T10:19:02;11.37;;;6.47;;
9176;SDS011;4623;54.310;10.112;2023-02-12T10:21:57;11.30;;;7.13;;
9176;SDS011;4623;54.310;10.112;2023-02-12T10:24:39;12.27;;;6.73;;
9176;SDS011;4623;54.310;10.112;2023-02-12T10:27:16;15.90;;;6.67;;
9176;SDS011;4623;54.310;10.112;2023-02-12T10:30:12;11.63;;;6.50;;
9176;SDS011;4623;54.310;10.112;2023-02-12T10:32:42;12.07;;;6.73;;
9176;SDS011;4623;54.310;10.112;2023-02-12T10:35:17;8.50;;;5.60;;
9176;SDS011;4623;54.310;10.112;2023-02-12T10:37:50;14.00;;;7.37;;
9176;SDS011;4623;54.310;10.112;2023-02-12T10:40:24;9.70;;;5.93;;
9176;SDS011;4623;54.310;10.112;2023-02-12T10:42:56;11.23;;;6.20;;
9176;SDS011;4623;54.310;10.112;2023-02-12T10:45:25;14.23;;;7.37;;
9176;SDS011;4623;54.310;10.112;2023-02-12T10:48:02;14.13;;;7.20;;
9176;SDS011;4623;54.310;10.112;2023-02-12T10:53:19;11.57;;;6.17;;
9176;SDS011;4623;54.310;10.112;2023-02-12T10:56:03;10.10;;;6.63;;
9176;SDS011;4623;54.310;10.112;2023-02-12T10:58:36;8.30;;;5.43;;
9176;SDS011;4623;54.310;10.112;2023-02-12T11:01:04;13.80;;;7.30;;
9176;SDS011;4623;54.310;10.112;2023-02-12T11:03:41;10.73;;;5.87;;
9176;SDS011;4623;54.310;10.112;2023-02-12T11:06:20;9.83;;;5.80;;
9176;SDS011;4623;54.310;10.112;2023-02-12T11:08:52;13.73;;;6.80;;
9176;SDS011;4623;54.310;10.112;2023-02-12T11:11:19;7.20;;;6.20;;
9176;SDS011;4623;54.310;10.112;2023-02-12T11:13:59;7.90;;;5.93;;
9176;SDS011;4623;54.310;10.112;2023-02-12T11:16:27;9.10;;;5.33;;
9176;SDS011;4623;54.310;10.112;2023-02-12T11:18:59;9.73;;;6.23;;
9176;SDS011;4623;54.310;10.112;2023-02-12T11:21:28;9.07;;;6.50;;
9176;SDS011;4623;54.310;10.112;2023-02-12T11:23:54;8.13;;;5.70;;
9176;SDS011;4623;54.310;10.112;2023-02-12T11:26:24;10.40;;;5.93;;
9176;SDS011;4623;54.310;10.112;2023-02-12T11:29:08;7.17;;;5.37;;
9176;SDS011;4623;54.310;10.112;2023-02-12T11:32:02;8.83;;;5.73;;
9176;SDS011;4623;54.310;10.112;2023-02-12T11:34:32;7.10;;;5.23;;
9176;SDS011;4623;54.310;10.112;2023-02-12T11:36:58;7.40;;;4.87;;
9176;SDS011;4623;54.310;10.112;2023-02-12T11:39:26;7.03;;;5.00;;
9176;SDS011;4623;54.310;10.112;2023-02-12T11:41:57;7.03;;;4.83;;
9176;SDS011;4623;54.310;10.112;2023-02-12T11:44:26;5.73;;;4.47;;
9176;SDS011;4623;54.310;10.112;2023-02-12T11:46:58;9.10;;;5.30;;
9176;SDS011;4623;54.310;10.112;2023-02-12T11:49:41;4.67;;;4.23;;
9176;SDS011;4623;54.310;10.112;2023-02-12T11:52:36;5.23;;;4.30;;
9176;SDS011;4623;54.310;10.112;2023-02-12T11:55:06;6.13;;;4.00;;
9176;SDS011;4623;54.310;10.112;2023-02-12T11:57:47;4.93;;;3.67;;
9176;SDS011;4623;54.310;10.112;2023-02-12T12:00:24;6.77;;;4.43;;
9176;SDS011;4623;54.310;10.112;2023-02-12T12:05:49;5.50;;;3.57;;
9176;SDS011;4623;54.310;10.112;2023-02-12T12:08:27;3.80;;;3.50;;
9176;SDS011;4623;54.310;10.112;2023-02-12T12:13:36;6.17;;;4.33;;
9176;SDS011;4623;54.310;10.112;2023-02-12T12:16:10;4.53;;;3.70;;
9176;SDS011;4623;54.310;10.112;2023-02-12T12:19:03;5.43;;;3.70;;
9176;SDS011;4623;54.310;10.112;2023-02-12T12:22:29;5.60;;;4.00;;
9176;SDS011;4623;54.310;10.112;2023-02-12T12:25:09;4.90;;;3.70;;
9176;SDS011;4623;54.310;10.112;2023-02-12T12:28:02;4.27;;;3.90;;
9176;SDS011;4623;54.310;10.112;2023-02-12T12:36:11;5.70;;;5.20;;
9176;SDS011;4623;54.310;10.112;2023-02-12T12:44:16;6.13;;;5.53;;
9176;SDS011;4623;54.310;10.112;2023-02-12T12:47:01;5.03;;;4.53;;
9176;SDS011;4623;54.310;10.112;2023-02-12T12:52:24;5.93;;;4.70;;
9176;SDS011;4623;54.310;10.112;2023-02-12T12:55:10;4.70;;;4.30;;
9176;SDS011;4623;54.310;10.112;2023-02-12T13:03:25;5.33;;;4.83;;
9176;SDS011;4623;54.310;10.112;2023-02-12T13:06:08;6.23;;;5.63;;
9176;SDS011;4623;54.310;10.112;2023-02-12T13:19:43;4.50;;;4.10;;
9176;SDS011;4623;54.310;10.112;2023-02-12T13:22:23;4.20;;;3.90;;
9176;SDS011;4623;54.310;10.112;2023-02-12T13:24:55;4.83;;;4.27;;
9176;SDS011;4623;54.310;10.112;2023-02-12T13:27:32;5.33;;;4.87;;
9176;SDS011;4623;54.310;10.112;2023-02-12T13:32:43;4.50;;;4.10;;
9176;SDS011;4623;54.310;10.112;2023-02-12T13:35:30;4.67;;;4.27;;
9176;SDS011;4623;54.310;10.112;2023-02-12T13:37:59;5.40;;;4.87;;
9176;SDS011;4623;54.310;10.112;2023-02-12T13:40:27;5.23;;;4.73;;
9176;SDS011;4623;54.310;10.112;2023-02-12T13:56:14;3.10;;;2.90;;
9176;SDS011;4623;54.310;10.112;2023-02-12T13:58:48;2.73;;;2.53;;
9176;SDS011;4623;54.310;10.112;2023-02-12T14:01:35;2.87;;;2.67;;
9176;SDS011;4623;54.310;10.112;2023-02-12T14:04:15;3.13;;;2.80;;
9176;SDS011;4623;54.310;10.112;2023-02-12T14:06:52;2.57;;;2.37;;
9176;SDS011;4623;54.310;10.112;2023-02-12T14:09:19;3.17;;;2.73;;
9176;SDS011;4623;54.310;10.112;2023-02-12T14:11:51;3.10;;;2.80;;
9176;SDS011;4623;54.310;10.112;2023-02-12T14:14:25;2.20;;;2.10;;
9176;SDS011;4623;54.310;10.112;2023-02-12T14:28:14;2.50;;;2.30;;
9176;SDS011;4623;54.310;10.112;2023-02-12T14:30:45;2.30;;;2.10;;
9176;SDS011;4623;54.310;10.112;2023-02-12T14:33:45;2.70;;;2.50;;
9176;SDS011;4623;54.310;10.112;2023-02-12T14:36:40;3.00;;;2.80;;
9176;SDS011;4623;54.310;10.112;2023-02-12T14:41:46;3.40;;;3.13;;
9176;SDS011;4623;54.310;10.112;2023-02-12T14:47:00;2.40;;;2.20;;
9176;SDS011;4623;54.310;10.112;2023-02-12T14:49:43;2.87;;;2.67;;
9176;SDS011;4623;54.310;10.112;2023-02-12T14:54:40;2.57;;;2.37;;
9176;SDS011;4623;54.310;10.112;2023-02-12T14:57:24;3.03;;;2.83;;
9176;SDS011;4623;54.310;10.112;2023-02-12T14:59:57;2.87;;;2.67;;
9176;SDS011;4623;54.310;10.112;2023-02-12T15:02:43;2.37;;;2.20;;
9176;SDS011;4623;54.310;10.112;2023-02-12T15:05:26;3.07;;;2.53;;
9176;SDS011;4623;54.310;10.112;2023-02-12T15:07:58;4.60;;;2.60;;
9176;SDS011;4623;54.310;10.112;2023-02-12T15:10:39;3.17;;;2.97;;
9176;SDS011;4623;54.310;10.112;2023-02-12T15:15:51;3.00;;;2.50;;
9176;SDS011;4623;54.310;10.112;2023-02-12T15:18:28;3.10;;;2.80;;
9176;SDS011;4623;54.310;10.112;2023-02-12T15:21:14;2.73;;;2.53;;
9176;SDS011;4623;54.310;10.112;2023-02-12T15:24:02;3.20;;;3.00;;
9176;SDS011;4623;54.310;10.112;2023-02-12T15:26:31;3.00;;;2.80;;
9176;SDS011;4623;54.310;10.112;2023-02-12T15:29:03;3.63;;;3.33;;
9176;SDS011;4623;54.310;10.112;2023-02-12T15:31:29;2.70;;;2.50;;
9176;SDS011;4623;54.310;10.112;2023-02-12T15:33:57;2.53;;;2.30;;
